sensor_id;sensor_type;location;lat;lon;timestamp;P1;durP1;ratioP1;P2;durP2;ratioP2
20896;SDS011;10608;42.600;23.398;2023-02-28T00:00:00;79.53;;;75.83;;
20896;SDS011;10608;42.600;23.398;2023-02-28T00:02:25;91.63;;;87.73;;
20896;SDS011;10608;42.600;23.398;2023-02-28T00:04:50;64.27;;;61.40;;
20896;SDS011;10608;42.600;23.398;2023-02-28T00:07:18;68.43;;;65.30;;
20896;SDS011;10608;42.600;23.398;2023-02-28T00:09:43;56.20;;;53.43;;
20896;SDS011;10608;42.600;23.398;2023-02-28T00:12:08;59.40;;;56.73;;
20896;SDS011;10608;42.600;23.398;2023-02-28T00:14:36;65.47;;;62.63;;
20896;SDS011;10608;42.600;23.398;2023-02-28T00:17:01;77.07;;;73.67;;
20896;SDS011;10608;42.600;23.398;2023-02-28T00:19:27;60.30;;;57.80;;
20896;SDS011;10608;42.600;23.398;2023-02-28T00:21:52;46.97;;;45.00;;
20896;SDS011;10608;42.600;23.398;2023-02-28T00:24:17;49.37;;;47.13;;
20896;SDS011;10608;42.600;23.398;2023-02-28T00:26:42;52.97;;;50.67;;
20896;SDS011;10608;42.600;23.398;2023-02-28T00:29:08;53.80;;;51.33;;
20896;SDS011;10608;42.600;23.398;2023-02-28T00:31:33;43.30;;;41.33;;
20896;SDS011;10608;42.600;23.398;2023-02-28T00:33:58;43.10;;;41.27;;
20896;SDS011;10608;42.600;23.398;2023-02-28T00:36:23;36.63;;;35.10;;
20896;SDS011;10608;42.600;23.398;2023-02-28T00:38:49;31.20;;;29.87;;
20896;SDS011;10608;42.600;23.398;2023-02-28T00:41:14;31.10;;;29.70;;
20896;SDS011;10608;42.600;23.398;2023-02-28T00:43:39;32.07;;;30.67;;
20896;SDS011;10608;42.600;23.398;2023-02-28T00:46:05;32.03;;;30.63;;
20896;SDS011;10608;42.600;23.398;2023-02-28T00:48:30;37.17;;;35.60;;
20896;SDS011;10608;42.600;23.398;2023-02-28T00:50:55;40.07;;;38.37;;
20896;SDS011;10608;42.600;23.398;2023-02-28T00:53:21;37.23;;;35.67;;
20896;SDS011;10608;42.600;23.398;2023-02-28T00:55:47;34.63;;;33.00;;
20896;SDS011;10608;42.600;23.398;2023-02-28T00:58:12;30.73;;;29.33;;
20896;SDS011;10608;42.600;23.398;2023-02-28T01:00:37;31.47;;;30.17;;
20896;SDS011;10608;42.600;23.398;2023-02-28T01:03:02;31.83;;;30.37;;
20896;SDS011;10608;42.600;23.398;2023-02-28T01:05:28;31.70;;;30.37;;
20896;SDS011;10608;42.600;23.398;2023-02-28T01:07:53;29.97;;;28.70;;
20896;SDS011;10608;42.600;23.398;2023-02-28T01:10:18;34.93;;;33.40;;
20896;SDS011;10608;42.600;23.398;2023-02-28T01:12:43;32.47;;;31.10;;
20896;SDS011;10608;42.600;23.398;2023-02-28T01:15:10;39.77;;;37.93;;
20896;SDS011;10608;42.600;23.398;2023-02-28T01:17:35;32.00;;;30.63;;
20896;SDS011;10608;42.600;23.398;2023-02-28T01:20:00;39.67;;;37.87;;
20896;SDS011;10608;42.600;23.398;2023-02-28T01:22:26;34.93;;;33.30;;
20896;SDS011;10608;42.600;23.398;2023-02-28T01:24:51;35.13;;;33.70;;
20896;SDS011;10608;42.600;23.398;2023-02-28T01:27:16;36.13;;;34.67;;
20896;SDS011;10608;42.600;23.398;2023-02-28T01:29:41;35.77;;;34.27;;
20896;SDS011;10608;42.600;23.398;2023-02-28T01:32:07;36.53;;;35.03;;
20896;SDS011;10608;42.600;23.398;2023-02-28T01:34:32;48.03;;;45.93;;
20896;SDS011;10608;42.600;23.398;2023-02-28T01:36:57;38.17;;;36.57;;
20896;SDS011;10608;42.600;23.398;2023-02-28T01:39:24;48.00;;;46.00;;
20896;SDS011;10608;42.600;23.398;2023-02-28T01:41:49;29.77;;;28.43;;
20896;SDS011;10608;42.600;23.398;2023-02-28T01:46:58;29.33;;;28.13;;
20896;SDS011;10608;42.600;23.398;2023-02-28T01:49:23;28.83;;;27.53;;
20896;SDS011;10608;42.600;23.398;2023-02-28T01:51:49;28.73;;;27.43;;
20896;SDS011;10608;42.600;23.398;2023-02-28T01:54:24;29.53;;;28.03;;
20896;SDS011;10608;42.600;23.398;2023-02-28T01:56:52;27.10;;;25.97;;
20896;SDS011;10608;42.600;23.398;2023-02-28T01:59:23;30.30;;;28.83;;
20896;SDS011;10608;42.600;23.398;2023-02-28T02:01:50;33.63;;;32.23;;
20896;SDS011;10608;42.600;23.398;2023-02-28T02:04:15;50.10;;;47.90;;
20896;SDS011;10608;42.600;23.398;2023-02-28T02:06:42;47.83;;;45.83;;
20896;SDS011;10608;42.600;23.398;2023-02-28T02:09:08;49.00;;;46.97;;
20896;SDS011;10608;42.600;23.398;2023-02-28T02:11:33;52.97;;;50.77;;
20896;SDS011;10608;42.600;23.398;2023-02-28T02:27:09;28.63;;;27.33;;
20896;SDS011;10608;42.600;23.398;2023-02-28T02:37:49;23.50;;;22.47;;
20896;SDS011;10608;42.600;23.398;2023-02-28T02:40:20;23.90;;;22.87;;
20896;SDS011;10608;42.600;23.398;2023-02-28T02:45:32;26.33;;;25.23;;
20896;SDS011;10608;42.600;23.398;2023-02-28T02:48:01;30.40;;;29.17;;
20896;SDS011;10608;42.600;23.398;2023-02-28T02:50:29;32.10;;;30.77;;
20896;SDS011;10608;42.600;23.398;2023-02-28T02:52:56;48.63;;;46.43;;
20896;SDS011;10608;42.600;23.398;2023-02-28T02:55:23;53.17;;;50.90;;
20896;SDS011;10608;42.600;23.398;2023-02-28T02:57:50;48.77;;;46.73;;
20896;SDS011;10608;42.600;23.398;2023-02-28T03:00:17;44.80;;;42.97;;
20896;SDS011;10608;42.600;23.398;2023-02-28T03:02:45;44.53;;;42.70;;
20896;SDS011;10608;42.600;23.398;2023-02-28T03:05:14;46.40;;;44.47;;
20896;SDS011;10608;42.600;23.398;2023-02-28T03:07:42;42.07;;;40.33;;
20896;SDS011;10608;42.600;23.398;2023-02-28T03:10:27;32.23;;;30.83;;
20896;SDS011;10608;42.600;23.398;2023-02-28T03:15:57;34.27;;;32.83;;
20896;SDS011;10608;42.600;23.398;2023-02-28T03:21:15;35.67;;;34.23;;
20896;SDS011;10608;42.600;23.398;2023-02-28T03:23:48;42.87;;;41.00;;
20896;SDS011;10608;42.600;23.398;2023-02-28T03:26:24;44.67;;;42.67;;
20896;SDS011;10608;42.600;23.398;2023-02-28T03:29:02;55.00;;;52.50;;
20896;SDS011;10608;42.600;23.398;2023-02-28T03:34:01;63.67;;;60.77;;
20896;SDS011;10608;42.600;23.398;2023-02-28T03:36:30;55.47;;;53.07;;
20896;SDS011;10608;42.600;23.398;2023-02-28T03:38:58;52.67;;;50.50;;
20896;SDS011;10608;42.600;23.398;2023-02-28T03:41:36;64.67;;;61.77;;
20896;SDS011;10608;42.600;23.398;2023-02-28T03:44:14;58.73;;;56.17;;
20896;SDS011;10608;42.600;23.398;2023-02-28T03:46:42;38.40;;;36.73;;
20896;SDS011;10608;42.600;23.398;2023-02-28T03:49:17;52.60;;;49.93;;
20896;SDS011;10608;42.600;23.398;2023-02-28T03:51:43;45.87;;;43.97;;
20896;SDS011;10608;42.600;23.398;2023-02-28T03:54:14;59.60;;;56.73;;
20896;SDS011;10608;42.600;23.398;2023-02-28T03:56:43;68.80;;;65.93;;
20896;SDS011;10608;42.600;23.398;2023-02-28T03:59:14;52.67;;;50.37;;
20896;SDS011;10608;42.600;23.398;2023-02-28T04:01:47;43.20;;;41.30;;
20896;SDS011;10608;42.600;23.398;2023-02-28T04:04:13;28.70;;;27.53;;
20896;SDS011;10608;42.600;23.398;2023-02-28T04:06:39;37.63;;;36.07;;
20896;SDS011;10608;42.600;23.398;2023-02-28T04:09:05;39.77;;;38.17;;
20896;SDS011;10608;42.600;23.398;2023-02-28T04:11:34;39.97;;;38.33;;
20896;SDS011;10608;42.600;23.398;2023-02-28T04:14:00;41.20;;;39.53;;
20896;SDS011;10608;42.600;23.398;2023-02-28T04:16:26;44.80;;;42.93;;
20896;SDS011;10608;42.600;23.398;2023-02-28T04:18:51;47.93;;;45.93;;
20896;SDS011;10608;42.600;23.398;2023-02-28T04:21:16;43.83;;;42.03;;
20896;SDS011;10608;42.600;23.398;2023-02-28T04:23:45;41.17;;;39.47;;
20896;SDS011;10608;42.600;23.398;2023-02-28T04:26:10;42.23;;;40.50;;
20896;SDS011;10608;42.600;23.398;2023-02-28T04:28:37;47.53;;;45.47;;
20896;SDS011;10608;42.600;23.398;2023-02-28T04:31:03;38.53;;;37.00;;
20896;SDS011;10608;42.600;23.398;2023-02-28T04:33:29;37.63;;;36.07;;
20896;SDS011;10608;42.600;23.398;2023-02-28T04:38:48;36.70;;;35.20;;
20896;SDS011;10608;42.600;23.398;2023-02-28T04:41:13;37.87;;;36.33;;
20896;SDS011;10608;42.600;23.398;2023-02-28T04:43:38;32.63;;;31.30;;
20896;SDS011;10608;42.600;23.398;2023-02-28T04:46:04;33.60;;;32.17;;
20896;SDS011;10608;42.600;23.398;2023-02-28T04:48:30;36.63;;;35.03;;
20896;SDS011;10608;42.600;23.398;2023-02-28T04:50:59;40.30;;;38.33;;
20896;SDS011;10608;42.600;23.398;2023-02-28T04:53:25;42.20;;;40.43;;
20896;SDS011;10608;42.600;23.398;2023-02-28T04:55:50;38.13;;;36.53;;
20896;SDS011;10608;42.600;23.398;2023-02-28T04:58:15;39.07;;;37.30;;
20896;SDS011;10608;42.600;23.398;2023-02-28T05:00:41;28.20;;;27.00;;
20896;SDS011;10608;42.600;23.398;2023-02-28T05:03:06;41.50;;;39.70;;
20896;SDS011;10608;42.600;23.398;2023-02-28T05:05:31;34.63;;;32.93;;
20896;SDS011;10608;42.600;23.398;2023-02-28T05:07:56;35.73;;;34.27;;
20896;SDS011;10608;42.600;23.398;2023-02-28T05:10:22;36.13;;;34.63;;
20896;SDS011;10608;42.600;23.398;2023-02-28T05:12:47;38.20;;;36.50;;
20896;SDS011;10608;42.600;23.398;2023-02-28T05:15:14;36.80;;;35.30;;
20896;SDS011;10608;42.600;23.398;2023-02-28T05:17:39;42.63;;;40.70;;
20896;SDS011;10608;42.600;23.398;2023-02-28T05:20:05;44.93;;;43.03;;
20896;SDS011;10608;42.600;23.398;2023-02-28T05:22:30;38.33;;;36.63;;
20896;SDS011;10608;42.600;23.398;2023-02-28T05:24:55;30.97;;;29.67;;
20896;SDS011;10608;42.600;23.398;2023-02-28T05:27:21;36.13;;;34.00;;
20896;SDS011;10608;42.600;23.398;2023-02-28T05:29:46;42.67;;;40.87;;
20896;SDS011;10608;42.600;23.398;2023-02-28T05:32:12;48.27;;;46.20;;
20896;SDS011;10608;42.600;23.398;2023-02-28T05:34:37;41.37;;;39.60;;
20896;SDS011;10608;42.600;23.398;2023-02-28T05:37:03;37.30;;;35.70;;
20896;SDS011;10608;42.600;23.398;2023-02-28T05:39:29;50.97;;;48.80;;
20896;SDS011;10608;42.600;23.398;2023-02-28T05:41:54;49.00;;;46.73;;
20896;SDS011;10608;42.600;23.398;2023-02-28T05:44:19;48.00;;;45.43;;
20896;SDS011;10608;42.600;23.398;2023-02-28T05:46:45;57.83;;;55.33;;
20896;SDS011;10608;42.600;23.398;2023-02-28T05:49:10;62.67;;;59.97;;
20896;SDS011;10608;42.600;23.398;2023-02-28T05:51:35;58.10;;;55.33;;
20896;SDS011;10608;42.600;23.398;2023-02-28T05:54:05;48.47;;;46.37;;
20896;SDS011;10608;42.600;23.398;2023-02-28T05:56:31;70.00;;;66.97;;
20896;SDS011;10608;42.600;23.398;2023-02-28T05:58:56;62.47;;;59.83;;
20896;SDS011;10608;42.600;23.398;2023-02-28T06:01:35;52.00;;;49.77;;
20896;SDS011;10608;42.600;23.398;2023-02-28T06:04:02;52.87;;;50.60;;
20896;SDS011;10608;42.600;23.398;2023-02-28T06:06:28;64.70;;;61.90;;
20896;SDS011;10608;42.600;23.398;2023-02-28T06:08:59;58.23;;;55.77;;
20896;SDS011;10608;42.600;23.398;2023-02-28T06:11:24;59.50;;;56.90;;
20896;SDS011;10608;42.600;23.398;2023-02-28T06:13:56;57.53;;;55.13;;
20896;SDS011;10608;42.600;23.398;2023-02-28T06:16:22;47.93;;;45.83;;
20896;SDS011;10608;42.600;23.398;2023-02-28T06:18:47;44.70;;;42.80;;
20896;SDS011;10608;42.600;23.398;2023-02-28T06:21:12;44.23;;;42.33;;
20896;SDS011;10608;42.600;23.398;2023-02-28T06:23:38;48.03;;;45.83;;
20896;SDS011;10608;42.600;23.398;2023-02-28T06:26:03;48.27;;;46.23;;
20896;SDS011;10608;42.600;23.398;2023-02-28T06:28:28;51.17;;;48.90;;
20896;SDS011;10608;42.600;23.398;2023-02-28T06:30:54;44.73;;;42.83;;
20896;SDS011;10608;42.600;23.398;2023-02-28T06:33:19;40.07;;;38.07;;
20896;SDS011;10608;42.600;23.398;2023-02-28T06:35:45;48.23;;;45.67;;
20896;SDS011;10608;42.600;23.398;2023-02-28T06:38:11;50.07;;;47.93;;
20896;SDS011;10608;42.600;23.398;2023-02-28T06:40:36;37.63;;;36.03;;
20896;SDS011;10608;42.600;23.398;2023-02-28T06:43:02;43.03;;;41.23;;
20896;SDS011;10608;42.600;23.398;2023-02-28T06:45:27;41.43;;;39.73;;
20896;SDS011;10608;42.600;23.398;2023-02-28T06:47:52;52.20;;;50.00;;
20896;SDS011;10608;42.600;23.398;2023-02-28T06:50:18;57.57;;;54.80;;
20896;SDS011;10608;42.600;23.398;2023-02-28T06:52:45;58.87;;;56.37;;
20896;SDS011;10608;42.600;23.398;2023-02-28T06:55:10;55.57;;;53.07;;
20896;SDS011;10608;42.600;23.398;2023-02-28T06:57:36;70.23;;;67.07;;
20896;SDS011;10608;42.600;23.398;2023-02-28T07:00:03;77.40;;;74.10;;
20896;SDS011;10608;42.600;23.398;2023-02-28T07:02:29;106.00;;;101.50;;
20896;SDS011;10608;42.600;23.398;2023-02-28T07:04:54;111.40;;;106.60;;
20896;SDS011;10608;42.600;23.398;2023-02-28T07:07:20;106.10;;;101.43;;
20896;SDS011;10608;42.600;23.398;2023-02-28T07:09:45;98.83;;;94.57;;
20896;SDS011;10608;42.600;23.398;2023-02-28T07:12:10;106.77;;;102.17;;
20896;SDS011;10608;42.600;23.398;2023-02-28T07:14:36;90.40;;;86.50;;
20896;SDS011;10608;42.600;23.398;2023-02-28T07:17:01;90.37;;;86.57;;
20896;SDS011;10608;42.600;23.398;2023-02-28T07:19:26;80.40;;;77.00;;
20896;SDS011;10608;42.600;23.398;2023-02-28T07:21:52;46.93;;;44.60;;
20896;SDS011;10608;42.600;23.398;2023-02-28T07:24:17;46.23;;;44.30;;
20896;SDS011;10608;42.600;23.398;2023-02-28T07:26:43;48.77;;;46.63;;
20896;SDS011;10608;42.600;23.398;2023-02-28T07:29:08;51.47;;;49.17;;
20896;SDS011;10608;42.600;23.398;2023-02-28T07:31:33;61.97;;;59.20;;
20896;SDS011;10608;42.600;23.398;2023-02-28T07:33:58;56.67;;;53.77;;
20896;SDS011;10608;42.600;23.398;2023-02-28T07:36:24;67.03;;;64.20;;
20896;SDS011;10608;42.600;23.398;2023-02-28T07:38:49;62.57;;;59.60;;
20896;SDS011;10608;42.600;23.398;2023-02-28T07:41:19;78.27;;;74.90;;
20896;SDS011;10608;42.600;23.398;2023-02-28T07:43:45;60.27;;;57.50;;
20896;SDS011;10608;42.600;23.398;2023-02-28T07:46:11;51.30;;;48.80;;
20896;SDS011;10608;42.600;23.398;2023-02-28T07:48:37;52.00;;;49.40;;
20896;SDS011;10608;42.600;23.398;2023-02-28T07:51:02;49.50;;;47.13;;
20896;SDS011;10608;42.600;23.398;2023-02-28T07:53:28;60.50;;;57.83;;
20896;SDS011;10608;42.600;23.398;2023-02-28T07:55:57;65.90;;;62.80;;
20896;SDS011;10608;42.600;23.398;2023-02-28T07:58:23;77.17;;;73.50;;
20896;SDS011;10608;42.600;23.398;2023-02-28T08:00:49;60.00;;;57.33;;
20896;SDS011;10608;42.600;23.398;2023-02-28T08:03:14;52.27;;;49.97;;
20896;SDS011;10608;42.600;23.398;2023-02-28T08:05:39;46.33;;;44.33;;
20896;SDS011;10608;42.600;23.398;2023-02-28T08:08:05;46.03;;;44.03;;
20896;SDS011;10608;42.600;23.398;2023-02-28T08:10:30;41.10;;;39.40;;
20896;SDS011;10608;42.600;23.398;2023-02-28T08:12:56;43.40;;;41.50;;
20896;SDS011;10608;42.600;23.398;2023-02-28T08:15:21;43.37;;;41.53;;
20896;SDS011;10608;42.600;23.398;2023-02-28T08:17:46;39.87;;;38.17;;
20896;SDS011;10608;42.600;23.398;2023-02-28T08:20:11;44.57;;;42.67;;
20896;SDS011;10608;42.600;23.398;2023-02-28T08:22:37;40.83;;;39.03;;
20896;SDS011;10608;42.600;23.398;2023-02-28T08:25:02;35.13;;;33.57;;
20896;SDS011;10608;42.600;23.398;2023-02-28T08:27:27;37.07;;;35.40;;
20896;SDS011;10608;42.600;23.398;2023-02-28T08:29:52;41.30;;;39.50;;
20896;SDS011;10608;42.600;23.398;2023-02-28T08:32:18;74.60;;;71.40;;
20896;SDS011;10608;42.600;23.398;2023-02-28T08:34:43;74.50;;;71.20;;
20896;SDS011;10608;42.600;23.398;2023-02-28T08:37:08;46.50;;;44.50;;
20896;SDS011;10608;42.600;23.398;2023-02-28T08:39:34;43.30;;;41.33;;
20896;SDS011;10608;42.600;23.398;2023-02-28T08:41:59;43.70;;;41.90;;
20896;SDS011;10608;42.600;23.398;2023-02-28T08:44:25;63.93;;;60.93;;
20896;SDS011;10608;42.600;23.398;2023-02-28T08:46:50;43.47;;;41.20;;
20896;SDS011;10608;42.600;23.398;2023-02-28T08:49:15;35.13;;;33.67;;
20896;SDS011;10608;42.600;23.398;2023-02-28T08:51:40;40.23;;;38.53;;
20896;SDS011;10608;42.600;23.398;2023-02-28T08:54:06;39.77;;;38.17;;
20896;SDS011;10608;42.600;23.398;2023-02-28T08:56:32;37.20;;;35.67;;
20896;SDS011;10608;42.600;23.398;2023-02-28T08:58:58;43.73;;;41.83;;
20896;SDS011;10608;42.600;23.398;2023-02-28T09:01:27;44.03;;;42.13;;
20896;SDS011;10608;42.600;23.398;2023-02-28T09:03:53;48.77;;;46.70;;
20896;SDS011;10608;42.600;23.398;2023-02-28T09:06:19;45.23;;;43.27;;
20896;SDS011;10608;42.600;23.398;2023-02-28T09:08:45;67.97;;;64.93;;
20896;SDS011;10608;42.600;23.398;2023-02-28T09:11:10;27.90;;;25.50;;
20896;SDS011;10608;42.600;23.398;2023-02-28T09:13:36;27.23;;;25.97;;
20896;SDS011;10608;42.600;23.398;2023-02-28T09:16:02;29.43;;;28.17;;
20896;SDS011;10608;42.600;23.398;2023-02-28T09:18:28;36.67;;;35.03;;
20896;SDS011;10608;42.600;23.398;2023-02-28T09:20:53;37.23;;;35.63;;
20896;SDS011;10608;42.600;23.398;2023-02-28T09:23:19;38.83;;;36.97;;
20896;SDS011;10608;42.600;23.398;2023-02-28T09:25:48;36.10;;;34.60;;
20896;SDS011;10608;42.600;23.398;2023-02-28T09:28:13;37.60;;;36.07;;
20896;SDS011;10608;42.600;23.398;2023-02-28T09:30:40;42.63;;;40.87;;
20896;SDS011;10608;42.600;23.398;2023-02-28T09:33:06;36.50;;;34.87;;
20896;SDS011;10608;42.600;23.398;2023-02-28T09:35:31;34.27;;;32.87;;
20896;SDS011;10608;42.600;23.398;2023-02-28T09:37:56;33.10;;;31.73;;
20896;SDS011;10608;42.600;23.398;2023-02-28T09:40:23;36.13;;;34.57;;
20896;SDS011;10608;42.600;23.398;2023-02-28T09:42:50;35.80;;;34.30;;
20896;SDS011;10608;42.600;23.398;2023-02-28T09:45:27;45.40;;;43.37;;
20896;SDS011;10608;42.600;23.398;2023-02-28T09:47:54;33.77;;;32.37;;
20896;SDS011;10608;42.600;23.398;2023-02-28T09:50:32;30.67;;;29.37;;
20896;SDS011;10608;42.600;23.398;2023-02-28T09:52:59;26.47;;;25.33;;
20896;SDS011;10608;42.600;23.398;2023-02-28T09:57:52;28.70;;;27.50;;
20896;SDS011;10608;42.600;23.398;2023-02-28T10:00:19;25.40;;;24.23;;
20896;SDS011;10608;42.600;23.398;2023-02-28T10:05:23;30.40;;;28.47;;
20896;SDS011;10608;42.600;23.398;2023-02-28T10:12:45;60.47;;;57.90;;
20896;SDS011;10608;42.600;23.398;2023-02-28T10:15:15;30.67;;;29.37;;
20896;SDS011;10608;42.600;23.398;2023-02-28T10:17:41;28.03;;;26.87;;
20896;SDS011;10608;42.600;23.398;2023-02-28T10:20:10;47.63;;;45.53;;
20896;SDS011;10608;42.600;23.398;2023-02-28T10:25:16;21.60;;;20.60;;
20896;SDS011;10608;42.600;23.398;2023-02-28T10:27:42;34.13;;;32.70;;
20896;SDS011;10608;42.600;23.398;2023-02-28T10:30:09;21.97;;;20.47;;
20896;SDS011;10608;42.600;23.398;2023-02-28T10:32:36;24.37;;;23.37;;
20896;SDS011;10608;42.600;23.398;2023-02-28T10:37:34;33.43;;;31.53;;
20896;SDS011;10608;42.600;23.398;2023-02-28T10:40:04;40.60;;;38.90;;
20896;SDS011;10608;42.600;23.398;2023-02-28T10:42:31;56.87;;;54.43;;
20896;SDS011;10608;42.600;23.398;2023-02-28T10:47:30;65.13;;;62.33;;
20896;SDS011;10608;42.600;23.398;2023-02-28T10:49:58;24.70;;;23.63;;
20896;SDS011;10608;42.600;23.398;2023-02-28T10:52:33;32.00;;;30.70;;
20896;SDS011;10608;42.600;23.398;2023-02-28T10:55:14;34.77;;;33.30;;
20896;SDS011;10608;42.600;23.398;2023-02-28T10:57:39;40.47;;;38.73;;
20896;SDS011;10608;42.600;23.398;2023-02-28T11:00:15;36.00;;;34.47;;
20896;SDS011;10608;42.600;23.398;2023-02-28T11:02:41;26.23;;;25.13;;
20896;SDS011;10608;42.600;23.398;2023-02-28T11:05:23;19.20;;;18.43;;
20896;SDS011;10608;42.600;23.398;2023-02-28T11:07:55;19.47;;;18.57;;
20896;SDS011;10608;42.600;23.398;2023-02-28T11:10:23;25.33;;;24.23;;
20896;SDS011;10608;42.600;23.398;2023-02-28T11:12:50;21.43;;;20.50;;
20896;SDS011;10608;42.600;23.398;2023-02-28T11:17:54;17.53;;;16.77;;
20896;SDS011;10608;42.600;23.398;2023-02-28T11:20:21;23.70;;;22.70;;
20896;SDS011;10608;42.600;23.398;2023-02-28T11:22:48;21.80;;;20.83;;
20896;SDS011;10608;42.600;23.398;2023-02-28T11:28:34;24.53;;;23.33;;
20896;SDS011;10608;42.600;23.398;2023-02-28T11:36:04;22.20;;;21.30;;
20896;SDS011;10608;42.600;23.398;2023-02-28T11:38:34;18.23;;;17.30;;
20896;SDS011;10608;42.600;23.398;2023-02-28T11:41:11;28.17;;;26.73;;
20896;SDS011;10608;42.600;23.398;2023-02-28T11:43:51;24.80;;;23.77;;
20896;SDS011;10608;42.600;23.398;2023-02-28T11:46:22;23.10;;;22.13;;
20896;SDS011;10608;42.600;23.398;2023-02-28T11:51:24;24.17;;;23.10;;
20896;SDS011;10608;42.600;23.398;2023-02-28T12:12:02;17.17;;;16.37;;
20896;SDS011;10608;42.600;23.398;2023-02-28T12:27:17;25.13;;;24.10;;
20896;SDS011;10608;42.600;23.398;2023-02-28T12:29:49;23.87;;;22.77;;
20896;SDS011;10608;42.600;23.398;2023-02-28T12:32:16;19.77;;;18.97;;
20896;SDS011;10608;42.600;23.398;2023-02-28T12:34:44;22.40;;;21.40;;
20896;SDS011;10608;42.600;23.398;2023-02-28T12:37:16;22.97;;;22.03;;
20896;SDS011;10608;42.600;23.398;2023-02-28T12:39:46;27.23;;;26.03;;
20896;SDS011;10608;42.600;23.398;2023-02-28T12:42:24;18.63;;;17.73;;
20896;SDS011;10608;42.600;23.398;2023-02-28T12:45:02;17.90;;;17.10;;
20896;SDS011;10608;42.600;23.398;2023-02-28T12:47:27;17.13;;;16.30;;
20896;SDS011;10608;42.600;23.398;2023-02-28T12:49:56;17.87;;;17.17;;
20896;SDS011;10608;42.600;23.398;2023-02-28T12:52:25;22.97;;;22.07;;
20896;SDS011;10608;42.600;23.398;2023-02-28T12:55:15;21.77;;;20.73;;
20896;SDS011;10608;42.600;23.398;2023-02-28T13:00:10;13.50;;;12.70;;
20896;SDS011;10608;42.600;23.398;2023-02-28T13:07:41;21.47;;;20.47;;
20896;SDS011;10608;42.600;23.398;2023-02-28T13:10:11;16.50;;;15.30;;
20896;SDS011;10608;42.600;23.398;2023-02-28T13:12:36;23.57;;;22.57;;
20896;SDS011;10608;42.600;23.398;2023-02-28T13:15:16;22.57;;;21.37;;
20896;SDS011;10608;42.600;23.398;2023-02-28T13:17:47;23.90;;;22.83;;
20896;SDS011;10608;42.600;23.398;2023-02-28T13:20:17;20.37;;;19.57;;
20896;SDS011;10608;42.600;23.398;2023-02-28T13:22:44;26.13;;;24.83;;
20896;SDS011;10608;42.600;23.398;2023-02-28T13:27:51;32.40;;;30.83;;
20896;SDS011;10608;42.600;23.398;2023-02-28T13:35:45;29.47;;;28.27;;
20896;SDS011;10608;42.600;23.398;2023-02-28T13:38:21;30.93;;;28.87;;
20896;SDS011;10608;42.600;23.398;2023-02-28T13:40:47;23.37;;;22.33;;
20896;SDS011;10608;42.600;23.398;2023-02-28T13:43:12;26.00;;;24.83;;
20896;SDS011;10608;42.600;23.398;2023-02-28T13:45:44;27.17;;;25.90;;
20896;SDS011;10608;42.600;23.398;2023-02-28T13:48:26;27.17;;;26.07;;
20896;SDS011;10608;42.600;23.398;2023-02-28T13:50:53;31.93;;;30.40;;
20896;SDS011;10608;42.600;23.398;2023-02-28T13:53:25;28.47;;;27.27;;
20896;SDS011;10608;42.600;23.398;2023-02-28T13:58:53;38.63;;;37.00;;
20896;SDS011;10608;42.600;23.398;2023-02-28T14:06:46;23.73;;;22.67;;
20896;SDS011;10608;42.600;23.398;2023-02-28T14:09:25;21.43;;;20.43;;
20896;SDS011;10608;42.600;23.398;2023-02-28T14:11:50;19.40;;;18.60;;
20896;SDS011;10608;42.600;23.398;2023-02-28T14:17:00;57.80;;;55.20;;
20896;SDS011;10608;42.600;23.398;2023-02-28T14:19:27;29.33;;;28.03;;
20896;SDS011;10608;42.600;23.398;2023-02-28T14:21:59;26.47;;;25.27;;
20896;SDS011;10608;42.600;23.398;2023-02-28T14:24:42;32.97;;;31.53;;
20896;SDS011;10608;42.600;23.398;2023-02-28T14:38:04;30.47;;;29.23;;
20896;SDS011;10608;42.600;23.398;2023-02-28T14:40:31;38.47;;;36.57;;
20896;SDS011;10608;42.600;23.398;2023-02-28T14:43:01;39.03;;;37.30;;
20896;SDS011;10608;42.600;23.398;2023-02-28T14:45:31;33.30;;;31.93;;
20896;SDS011;10608;42.600;23.398;2023-02-28T14:47:57;27.23;;;26.07;;
20896;SDS011;10608;42.600;23.398;2023-02-28T14:50:26;25.50;;;24.43;;
20896;SDS011;10608;42.600;23.398;2023-02-28T14:52:52;20.23;;;19.33;;
20896;SDS011;10608;42.600;23.398;2023-02-28T14:55:18;27.97;;;26.67;;
20896;SDS011;10608;42.600;23.398;2023-02-28T14:57:53;22.73;;;21.83;;
20896;SDS011;10608;42.600;23.398;2023-02-28T15:00:23;21.83;;;20.93;;
20896;SDS011;10608;42.600;23.398;2023-02-28T15:02:48;22.80;;;21.77;;
20896;SDS011;10608;42.600;23.398;2023-02-28T15:07:42;33.07;;;31.70;;
20896;SDS011;10608;42.600;23.398;2023-02-28T15:10:13;26.50;;;25.20;;
20896;SDS011;10608;42.600;23.398;2023-02-28T15:12:40;28.93;;;27.73;;
20896;SDS011;10608;42.600;23.398;2023-02-28T15:15:14;22.23;;;20.83;;
20896;SDS011;10608;42.600;23.398;2023-02-28T15:17:39;27.77;;;25.43;;
20896;SDS011;10608;42.600;23.398;2023-02-28T15:20:10;36.47;;;34.87;;
20896;SDS011;10608;42.600;23.398;2023-02-28T15:22:36;57.00;;;54.53;;
20896;SDS011;10608;42.600;23.398;2023-02-28T15:25:02;75.20;;;72.00;;
20896;SDS011;10608;42.600;23.398;2023-02-28T15:27:31;79.73;;;76.33;;
20896;SDS011;10608;42.600;23.398;2023-02-28T15:30:00;62.27;;;59.70;;
20896;SDS011;10608;42.600;23.398;2023-02-28T15:32:37;44.37;;;42.47;;
20896;SDS011;10608;42.600;23.398;2023-02-28T15:35:18;31.00;;;29.50;;
20896;SDS011;10608;42.600;23.398;2023-02-28T15:40:17;32.93;;;31.57;;
20896;SDS011;10608;42.600;23.398;2023-02-28T15:42:57;38.37;;;36.77;;
20896;SDS011;10608;42.600;23.398;2023-02-28T15:45:26;45.20;;;43.30;;
20896;SDS011;10608;42.600;23.398;2023-02-28T15:47:51;61.60;;;58.93;;
20896;SDS011;10608;42.600;23.398;2023-02-28T15:50:17;37.07;;;35.57;;
20896;SDS011;10608;42.600;23.398;2023-02-28T15:52:43;39.40;;;37.80;;
20896;SDS011;10608;42.600;23.398;2023-02-28T15:57:44;56.47;;;53.93;;
20896;SDS011;10608;42.600;23.398;2023-02-28T16:00:13;57.60;;;55.03;;
20896;SDS011;10608;42.600;23.398;2023-02-28T16:02:39;30.63;;;29.30;;
20896;SDS011;10608;42.600;23.398;2023-02-28T16:07:36;29.30;;;28.13;;
20896;SDS011;10608;42.600;23.398;2023-02-28T16:10:03;28.73;;;27.53;;
20896;SDS011;10608;42.600;23.398;2023-02-28T16:12:30;34.10;;;32.67;;
20896;SDS011;10608;42.600;23.398;2023-02-28T16:14:57;30.13;;;28.90;;
20896;SDS011;10608;42.600;23.398;2023-02-28T16:17:24;32.03;;;30.73;;
20896;SDS011;10608;42.600;23.398;2023-02-28T16:19:50;41.67;;;39.87;;
20896;SDS011;10608;42.600;23.398;2023-02-28T16:22:15;49.90;;;47.77;;
20896;SDS011;10608;42.600;23.398;2023-02-28T16:24:40;47.37;;;45.37;;
20896;SDS011;10608;42.600;23.398;2023-02-28T16:27:06;55.53;;;53.20;;
20896;SDS011;10608;42.600;23.398;2023-02-28T16:29:33;61.80;;;59.13;;
20896;SDS011;10608;42.600;23.398;2023-02-28T16:31:59;67.80;;;64.87;;
20896;SDS011;10608;42.600;23.398;2023-02-28T16:34:25;63.90;;;61.10;;
20896;SDS011;10608;42.600;23.398;2023-02-28T16:36:50;60.97;;;58.33;;